createdAt,value
2018-02-07T00:02:08.450Z,-0.80
2018-02-07T00:04:36.086Z,-0.90
2018-02-07T00:07:03.733Z,-0.90
2018-02-07T00:09:31.319Z,-1.00
2018-02-07T00:11:58.908Z,-1.00
2018-02-07T00:14:26.499Z,-1.00
2018-02-07T00:16:54.454Z,-1.10
2018-02-07T00:19:22.418Z,-1.10
2018-02-07T00:21:49.990Z,-1.10
2018-02-07T00:24:17.551Z,-1.10
2018-02-07T00:26:45.125Z,-1.10
2018-02-07T00:29:13.050Z,-1.10
2018-02-07T00:31:40.627Z,-1.10
2018-02-07T00:34:08.196Z,-1.10
2018-02-07T00:36:36.158Z,-1.20
2018-02-07T00:39:04.096Z,-1.20
2018-02-07T00:41:31.940Z,-1.20
2018-02-07T00:43:59.506Z,-1.20
2018-02-07T00:46:27.090Z,-1.20
2018-02-07T00:48:54.653Z,-1.10
2018-02-07T00:51:22.443Z,-1.20
2018-02-07T00:53:50.433Z,-1.20
2018-02-07T00:56:18.374Z,-1.20
2018-02-07T00:58:46.747Z,-1.20
2018-02-07T01:01:14.734Z,-1.20
2018-02-07T01:03:42.681Z,-1.20
2018-02-07T01:06:10.225Z,-1.20
2018-02-07T01:08:37.794Z,-1.20
2018-02-07T01:11:05.423Z,-1.30
2018-02-07T01:13:33.074Z,-1.30
2018-02-07T01:16:00.634Z,-1.30
2018-02-07T01:18:28.211Z,-1.30
2018-02-07T01:20:55.767Z,-1.40
2018-02-07T01:23:23.353Z,-1.40
2018-02-07T01:25:50.904Z,-1.40
2018-02-07T01:28:18.493Z,-1.40
2018-02-07T01:30:46.466Z,-1.40
2018-02-07T01:33:14.429Z,-1.40
2018-02-07T01:35:42.435Z,-1.40
2018-02-07T01:38:10.789Z,-1.40
2018-02-07T01:40:38.335Z,-1.40
2018-02-07T01:43:06.360Z,-1.50
2018-02-07T01:45:33.951Z,-1.50
2018-02-07T01:48:01.512Z,-1.50
2018-02-07T01:50:29.067Z,-1.40
2018-02-07T01:52:56.638Z,-1.40
2018-02-07T01:55:24.599Z,-1.40
2018-02-07T01:57:52.133Z,-1.40
2018-02-07T02:00:19.718Z,-1.50
2018-02-07T02:02:47.236Z,-1.50
2018-02-07T02:05:15.298Z,-1.50
2018-02-07T02:07:42.825Z,-1.50
2018-02-07T02:10:10.724Z,-1.60
2018-02-07T02:12:38.356Z,-1.60
2018-02-07T02:15:06.320Z,-1.60
2018-02-07T02:17:34.288Z,-1.60
2018-02-07T02:20:02.262Z,-1.70
2018-02-07T02:22:29.802Z,-1.70
2018-02-07T02:24:57.376Z,-1.70
2018-02-07T02:27:24.950Z,-1.70
2018-02-07T02:29:52.939Z,-1.70
2018-02-07T02:32:20.509Z,-1.70
2018-02-07T02:34:48.046Z,-1.70
2018-02-07T02:37:15.630Z,-1.70
2018-02-07T02:39:43.246Z,-1.70
2018-02-07T02:42:10.784Z,-1.70
2018-02-07T02:44:38.337Z,-1.80
2018-02-07T02:47:05.872Z,-1.80
2018-02-07T02:49:33.417Z,-1.80
2018-02-07T02:52:00.984Z,-1.80
2018-02-07T02:54:28.553Z,-1.80
2018-02-07T02:56:56.595Z,-1.80
2018-02-07T02:59:24.156Z,-1.70
2018-02-07T03:01:51.716Z,-1.70
2018-02-07T03:04:19.279Z,-1.70
2018-02-07T03:06:46.853Z,-1.70
2018-02-07T03:09:14.405Z,-1.80
2018-02-07T03:11:41.972Z,-1.80
2018-02-07T03:14:09.552Z,-1.70
2018-02-07T03:16:37.113Z,-1.80
2018-02-07T03:19:04.666Z,-1.70
2018-02-07T03:21:32.238Z,-1.70
2018-02-07T03:24:01.818Z,-1.70
2018-02-07T03:26:29.371Z,-1.70
2018-02-07T03:28:56.932Z,-1.70
2018-02-07T03:31:24.538Z,-1.70
2018-02-07T03:33:52.949Z,-1.70
2018-02-07T03:36:20.499Z,-1.80
2018-02-07T03:38:48.439Z,-1.80
2018-02-07T03:41:16.026Z,-1.80
2018-02-07T03:43:43.962Z,-1.80
2018-02-07T03:46:11.506Z,-1.80
2018-02-07T03:48:39.065Z,-1.80
2018-02-07T03:51:06.655Z,-1.80
2018-02-07T03:53:34.262Z,-1.80
2018-02-07T03:56:01.790Z,-1.80
2018-02-07T03:58:29.779Z,-1.80
2018-02-07T04:00:57.337Z,-1.80
2018-02-07T04:03:24.892Z,-1.80
2018-02-07T04:05:52.453Z,-1.80
2018-02-07T04:08:20.086Z,-1.90
2018-02-07T04:10:47.689Z,-1.90
2018-02-07T04:13:15.268Z,-1.90
2018-02-07T04:15:42.785Z,-1.80
2018-02-07T04:18:10.348Z,-1.80
2018-02-07T04:20:37.937Z,-1.90
2018-02-07T04:23:05.491Z,-1.90
2018-02-07T04:25:33.062Z,-1.90
2018-02-07T04:28:00.624Z,-2.00
2018-02-07T04:30:28.202Z,-2.00
2018-02-07T04:32:55.768Z,-2.00
2018-02-07T04:35:23.331Z,-2.00
2018-02-07T04:37:50.905Z,-2.00
2018-02-07T04:40:19.844Z,-1.90
2018-02-07T04:42:47.424Z,-1.90
2018-02-07T04:45:14.984Z,-2.00
2018-02-07T04:47:42.550Z,-2.00
2018-02-07T04:50:10.129Z,-2.00
2018-02-07T04:52:37.686Z,-2.10
2018-02-07T04:55:05.222Z,-2.10
2018-02-07T04:57:32.816Z,-2.10
2018-02-07T05:00:00.365Z,-2.10
2018-02-07T05:02:28.021Z,-2.10
2018-02-07T05:04:55.599Z,-2.10
2018-02-07T05:07:23.539Z,-2.10
2018-02-07T05:09:51.089Z,-2.10
2018-02-07T05:12:18.660Z,-2.10
2018-02-07T05:14:46.194Z,-2.10
2018-02-07T05:17:13.744Z,-2.10
2018-02-07T05:19:41.288Z,-2.10
2018-02-07T05:22:08.816Z,-2.10
2018-02-07T05:27:26.472Z,-2.10
2018-02-07T05:29:54.013Z,-2.20
2018-02-07T05:32:21.589Z,-2.20
2018-02-07T05:34:51.410Z,-2.20
2018-02-07T05:37:19.117Z,-2.20
2018-02-07T05:39:47.605Z,-2.10
2018-02-07T05:42:15.946Z,-2.10
2018-02-07T05:44:43.505Z,-2.10
2018-02-07T05:47:18.277Z,-2.10
2018-02-07T05:49:59.128Z,-2.10
2018-02-07T05:52:26.742Z,-2.10
2018-02-07T05:54:54.278Z,-2.10
2018-02-07T05:57:22.536Z,-2.10
2018-02-07T06:02:44.237Z,-2.00
2018-02-07T06:05:12.196Z,-2.10
2018-02-07T06:07:39.759Z,-2.10
2018-02-07T06:10:07.740Z,-2.10
2018-02-07T06:12:35.702Z,-2.10
2018-02-07T06:15:03.287Z,-2.10
2018-02-07T06:17:30.847Z,-2.10
2018-02-07T06:19:58.491Z,-2.10
2018-02-07T06:22:26.121Z,-2.10
2018-02-07T06:24:54.051Z,-2.10
2018-02-07T06:27:22.426Z,-2.00
2018-02-07T06:29:50.001Z,-2.00
2018-02-07T06:32:17.606Z,-2.00
2018-02-07T06:34:45.536Z,-2.00
2018-02-07T06:37:13.120Z,-2.00
2018-02-07T06:39:40.681Z,-2.00
2018-02-07T06:42:09.041Z,-2.00
2018-02-07T06:44:36.626Z,-2.00
2018-02-07T06:47:04.649Z,-2.00
2018-02-07T06:49:32.235Z,-2.00
2018-02-07T06:51:59.792Z,-1.90
2018-02-07T06:54:27.366Z,-2.00
2018-02-07T06:56:55.351Z,-2.00
2018-02-07T06:59:23.588Z,-2.00
2018-02-07T07:01:51.113Z,-2.00
2018-02-07T07:04:18.671Z,-2.00
2018-02-07T07:06:46.234Z,-2.00
2018-02-07T07:09:13.816Z,-2.00
2018-02-07T07:11:41.817Z,-2.00
2018-02-07T07:14:09.376Z,-2.00
2018-02-07T07:16:37.589Z,-2.00
2018-02-07T07:19:05.143Z,-2.00
2018-02-07T07:21:32.778Z,-1.90
2018-02-07T07:24:01.907Z,-1.90
2018-02-07T07:26:29.454Z,-1.90
2018-02-07T07:28:57.002Z,-1.90
2018-02-07T07:31:24.981Z,-1.80
2018-02-07T07:33:52.942Z,-1.70
2018-02-07T07:36:20.489Z,-1.70
2018-02-07T07:38:48.068Z,-1.70
2018-02-07T07:41:16.033Z,-1.70
2018-02-07T07:43:43.968Z,-1.70
2018-02-07T07:46:11.539Z,-1.70
2018-02-07T07:48:39.098Z,-1.70
2018-02-07T07:51:06.657Z,-1.60
2018-02-07T07:53:34.242Z,-1.60
2018-02-07T07:56:02.276Z,-1.50
2018-02-07T07:58:29.838Z,-1.50
2018-02-07T08:00:57.442Z,-1.50
2018-02-07T08:03:25.005Z,-1.50
2018-02-07T08:05:52.639Z,-1.50
2018-02-07T08:08:20.593Z,-1.40
2018-02-07T08:10:48.193Z,-1.50
2018-02-07T08:13:15.746Z,-1.40
2018-02-07T08:18:46.628Z,-1.20
2018-02-07T08:21:14.180Z,-1.10
2018-02-07T08:23:41.750Z,-1.10
2018-02-07T08:26:09.301Z,-1.00
2018-02-07T08:28:36.859Z,-1.00
2018-02-07T08:31:04.455Z,-1.00
2018-02-07T08:33:31.968Z,-0.90
2018-02-07T08:35:59.518Z,-0.80
2018-02-07T08:38:27.093Z,-0.80
2018-02-07T08:40:54.622Z,-0.80
2018-02-07T08:43:22.253Z,-0.60
2018-02-07T08:45:49.821Z,-0.60
2018-02-07T08:48:18.213Z,-0.30
2018-02-07T08:50:46.188Z,-0.20
2018-02-07T08:53:14.189Z,-0.10
2018-02-07T08:55:41.746Z,-0.10
2018-02-07T08:58:09.317Z,0.10
2018-02-07T09:00:36.883Z,0.20
2018-02-07T09:03:04.473Z,0.30
2018-02-07T09:05:32.025Z,0.40
2018-02-07T09:07:59.584Z,0.20
2018-02-07T09:10:27.121Z,0.10
2018-02-07T09:12:54.691Z,0.10
2018-02-07T09:15:22.249Z,0.00
2018-02-07T09:17:49.818Z,0.10
2018-02-07T09:20:17.918Z,0.20
2018-02-07T09:22:45.428Z,0.20
2018-02-07T09:25:13.013Z,0.30
2018-02-07T09:27:40.598Z,0.40
2018-02-07T09:30:08.170Z,0.50
2018-02-07T09:32:35.702Z,0.50
2018-02-07T09:35:03.239Z,0.60
2018-02-07T09:37:30.852Z,0.70
2018-02-07T09:39:58.471Z,0.80
2018-02-07T09:42:26.010Z,0.90
2018-02-07T09:44:53.555Z,1.10
2018-02-07T09:47:21.290Z,1.10
2018-02-07T09:49:49.235Z,1.30
2018-02-07T09:52:16.761Z,1.30
2018-02-07T09:54:44.334Z,1.30
2018-02-07T09:57:11.898Z,1.50
2018-02-07T09:59:39.461Z,1.70
2018-02-07T10:02:07.005Z,1.90
2018-02-07T10:04:35.506Z,2.00
2018-02-07T10:07:05.227Z,2.10
2018-02-07T10:09:32.823Z,2.20
2018-02-07T10:12:00.395Z,2.40
2018-02-07T10:14:28.983Z,2.50
2018-02-07T10:16:57.609Z,2.80
2018-02-07T10:19:25.215Z,2.80
2018-02-07T10:21:52.805Z,3.00
2018-02-07T10:24:21.334Z,3.10
2018-02-07T10:26:48.896Z,3.10
2018-02-07T10:29:16.727Z,2.80
2018-02-07T10:31:44.283Z,2.60
2018-02-07T10:34:14.202Z,2.70
2018-02-07T10:36:41.799Z,2.70
2018-02-07T10:39:10.607Z,2.70
2018-02-07T10:41:38.188Z,2.70
2018-02-07T10:44:05.759Z,2.90
2018-02-07T10:46:35.682Z,2.80
2018-02-07T10:49:03.504Z,3.00
2018-02-07T10:51:32.366Z,3.00
2018-02-07T10:54:00.705Z,3.00
2018-02-07T10:56:29.940Z,3.00
2018-02-07T10:58:57.922Z,3.00
2018-02-07T11:01:25.578Z,3.00
2018-02-07T11:03:54.299Z,2.90
2018-02-07T11:06:23.754Z,2.90
2018-02-07T11:08:51.310Z,3.10
2018-02-07T11:11:18.885Z,3.20
2018-02-07T11:13:47.911Z,3.60
2018-02-07T11:16:15.465Z,3.60
2018-02-07T11:18:43.621Z,4.20
2018-02-07T11:21:11.162Z,4.30
2018-02-07T11:23:39.202Z,5.20
2018-02-07T11:26:07.719Z,5.20
2018-02-07T11:28:36.264Z,6.10
2018-02-07T11:31:03.892Z,6.10
2018-02-07T11:33:32.122Z,6.20
2018-02-07T11:35:59.717Z,6.10
2018-02-07T11:38:27.861Z,6.30
2018-02-07T11:40:55.404Z,6.10
2018-02-07T11:43:23.537Z,5.80
2018-02-07T11:45:51.983Z,5.20
2018-02-07T11:48:20.068Z,5.20
2018-02-07T11:50:48.818Z,5.00
2018-02-07T11:53:16.453Z,4.40
2018-02-07T11:55:44.810Z,3.70
2018-02-07T11:58:12.403Z,3.60
2018-02-07T12:00:40.116Z,3.90
2018-02-07T12:03:08.724Z,4.40
2018-02-07T12:05:38.102Z,4.80
2018-02-07T12:08:06.428Z,5.10
2018-02-07T12:10:34.013Z,5.50
2018-02-07T12:13:01.618Z,5.90
2018-02-07T12:15:31.054Z,5.80
2018-02-07T12:17:59.813Z,6.40
2018-02-07T12:20:27.405Z,6.90
2018-02-07T12:22:54.970Z,7.10
2018-02-07T12:25:23.654Z,7.50
2018-02-07T12:27:52.175Z,7.10
2018-02-07T12:30:21.740Z,7.30
2018-02-07T12:32:49.368Z,7.30
2018-02-07T12:35:18.094Z,6.80
2018-02-07T12:37:45.793Z,6.60
2018-02-07T12:40:14.890Z,6.50
2018-02-07T12:42:43.673Z,6.40
2018-02-07T12:45:12.631Z,6.10
2018-02-07T12:47:41.137Z,6.10
2018-02-07T12:50:08.705Z,5.80
2018-02-07T12:52:37.667Z,5.60
2018-02-07T12:55:05.993Z,5.80
2018-02-07T12:57:33.574Z,5.40
2018-02-07T13:00:02.899Z,5.50
2018-02-07T13:02:30.533Z,5.60
2018-02-07T13:04:58.946Z,5.60
2018-02-07T13:07:27.900Z,6.40
2018-02-07T13:09:56.199Z,7.00
2018-02-07T13:12:23.765Z,7.20
2018-02-07T13:14:51.534Z,7.70
2018-02-07T13:17:19.095Z,8.10
2018-02-07T13:19:49.036Z,8.20
2018-02-07T13:22:16.986Z,8.10
2018-02-07T13:24:45.447Z,8.10
2018-02-07T13:27:13.272Z,7.80
2018-02-07T13:29:42.162Z,7.30
2018-02-07T13:32:09.793Z,7.30
2018-02-07T13:34:37.767Z,7.90
2018-02-07T13:37:05.300Z,7.90
2018-02-07T13:39:33.887Z,7.60
2018-02-07T13:42:01.434Z,7.00
2018-02-07T13:44:29.937Z,7.00
2018-02-07T13:46:57.518Z,6.70
2018-02-07T13:49:26.455Z,7.10
2018-02-07T13:51:54.830Z,7.10
2018-02-07T13:54:22.434Z,6.60
2018-02-07T13:56:50.109Z,6.80
2018-02-07T13:59:18.082Z,7.30
2018-02-07T14:01:47.474Z,7.40
2018-02-07T14:04:16.464Z,7.40
2018-02-07T14:06:44.796Z,7.30
2018-02-07T14:09:12.570Z,6.90
2018-02-07T14:11:40.159Z,6.70
2018-02-07T14:14:07.702Z,6.60
2018-02-07T14:16:36.683Z,6.80
2018-02-07T14:19:04.696Z,6.70
2018-02-07T14:21:32.654Z,6.80
2018-02-07T14:24:00.424Z,6.80
2018-02-07T14:26:28.400Z,7.20
2018-02-07T14:28:56.348Z,7.40
2018-02-07T14:31:24.333Z,7.40
2018-02-07T14:33:53.970Z,7.40
2018-02-07T14:36:23.450Z,7.40
2018-02-07T14:38:51.519Z,7.30
2018-02-07T14:41:21.618Z,7.80
2018-02-07T14:43:49.641Z,7.90
2018-02-07T14:46:18.731Z,8.00
2018-02-07T14:48:46.362Z,8.10
2018-02-07T14:51:14.965Z,7.70
2018-02-07T14:53:44.266Z,7.70
2018-02-07T14:56:12.160Z,7.40
2018-02-07T14:58:39.782Z,7.30
2018-02-07T15:01:09.362Z,6.60
2018-02-07T15:03:38.119Z,6.60
2018-02-07T15:06:05.718Z,6.90
2018-02-07T15:08:34.475Z,6.10
2018-02-07T15:11:03.622Z,6.10
2018-02-07T15:13:33.303Z,5.60
2018-02-07T15:16:01.207Z,5.00
2018-02-07T15:18:29.638Z,4.90
2018-02-07T15:20:57.608Z,4.40
2018-02-07T15:23:26.973Z,4.50
2018-02-07T15:25:54.538Z,4.30
2018-02-07T15:28:22.863Z,4.10
2018-02-07T15:30:52.011Z,3.80
2018-02-07T15:33:19.589Z,3.80
2018-02-07T15:35:47.425Z,3.80
2018-02-07T15:38:15.934Z,3.70
2018-02-07T15:40:43.500Z,3.70
2018-02-07T15:43:11.099Z,3.50
2018-02-07T15:45:39.841Z,3.40
2018-02-07T15:48:07.465Z,3.40
2018-02-07T15:50:35.302Z,3.30
2018-02-07T15:53:03.005Z,3.20
2018-02-07T15:55:30.543Z,3.30
2018-02-07T15:57:58.116Z,3.20
2018-02-07T16:00:25.772Z,3.10
2018-02-07T16:02:53.388Z,3.10
2018-02-07T16:05:20.947Z,3.00
2018-02-07T16:07:50.012Z,2.90
2018-02-07T16:10:17.600Z,2.80
2018-02-07T16:12:46.257Z,2.70
2018-02-07T16:15:13.869Z,2.60
2018-02-07T16:17:45.662Z,2.50
2018-02-07T16:20:13.225Z,2.40
2018-02-07T16:22:41.604Z,2.40
2018-02-07T16:25:09.144Z,2.30
2018-02-07T16:27:37.043Z,2.30
2018-02-07T16:30:04.589Z,2.20
2018-02-07T16:32:32.212Z,2.10
2018-02-07T16:34:59.888Z,2.10
2018-02-07T16:37:28.145Z,2.10
2018-02-07T16:39:56.082Z,2.00
2018-02-07T16:42:25.853Z,2.00
2018-02-07T16:44:53.490Z,1.90
2018-02-07T16:47:23.101Z,1.80
2018-02-07T16:49:52.033Z,1.80
2018-02-07T16:52:19.736Z,1.80
2018-02-07T16:54:47.825Z,1.70
2018-02-07T16:57:15.469Z,1.70
2018-02-07T16:59:43.023Z,1.60
2018-02-07T17:02:10.686Z,1.60
2018-02-07T17:04:38.225Z,1.60
2018-02-07T17:07:05.792Z,1.50
2018-02-07T17:09:33.373Z,1.50
2018-02-07T17:12:00.990Z,1.50
2018-02-07T17:14:28.541Z,1.50
2018-02-07T17:16:56.102Z,1.50
2018-02-07T17:19:23.949Z,1.40
2018-02-07T17:21:51.509Z,1.40
2018-02-07T17:24:21.293Z,1.30
2018-02-07T17:26:48.862Z,1.30
2018-02-07T17:29:16.393Z,1.40
2018-02-07T17:31:43.970Z,1.30
2018-02-07T17:34:11.497Z,1.30
2018-02-07T17:36:39.044Z,1.30
2018-02-07T17:39:06.630Z,1.20
2018-02-07T17:41:34.184Z,1.20
2018-02-07T17:44:01.840Z,1.20
2018-02-07T17:46:29.405Z,1.20
2018-02-07T17:48:56.995Z,1.20
2018-02-07T17:51:24.953Z,1.30
2018-02-07T17:53:52.935Z,1.30
2018-02-07T17:56:20.817Z,1.30
2018-02-07T17:58:48.408Z,1.20
2018-02-07T18:01:17.113Z,1.30
2018-02-07T18:03:44.827Z,1.30
2018-02-07T18:06:12.443Z,1.30
2018-02-07T18:08:40.031Z,1.30
2018-02-07T18:11:07.642Z,1.40
2018-02-07T18:13:35.239Z,1.50
2018-02-07T18:16:02.845Z,1.50
2018-02-07T18:18:30.440Z,1.50
2018-02-07T18:20:58.565Z,1.40
2018-02-07T18:23:26.118Z,1.40
2018-02-07T18:25:54.097Z,1.30
2018-02-07T18:28:21.734Z,1.40
2018-02-07T18:30:49.310Z,1.30
2018-02-07T18:33:17.278Z,1.10
2018-02-07T18:35:46.115Z,1.10
2018-02-07T18:38:15.511Z,1.10
2018-02-07T18:40:43.121Z,1.00
2018-02-07T18:43:11.096Z,0.90
2018-02-07T18:45:38.671Z,0.90
2018-02-07T18:48:06.250Z,0.80
2018-02-07T18:50:33.799Z,0.80
2018-02-07T18:53:01.366Z,0.80
2018-02-07T18:55:31.511Z,0.80
2018-02-07T18:57:59.074Z,0.70
2018-02-07T19:00:27.470Z,0.80
2018-02-07T19:02:55.035Z,0.70
2018-02-07T19:05:22.964Z,0.70
2018-02-07T19:07:50.564Z,0.70
2018-02-07T19:10:18.525Z,0.60
2018-02-07T19:12:47.196Z,0.60
2018-02-07T19:15:14.753Z,0.50
2018-02-07T19:17:42.290Z,0.50
2018-02-07T19:20:09.908Z,0.50
2018-02-07T19:22:37.882Z,0.50
2018-02-07T19:25:05.444Z,0.50
2018-02-07T19:27:33.034Z,0.40
2018-02-07T19:30:00.768Z,0.40
2018-02-07T19:32:29.589Z,0.40
2018-02-07T19:35:04.117Z,0.40
2018-02-07T19:37:31.771Z,0.30
2018-02-07T19:40:00.465Z,0.40
2018-02-07T19:42:28.831Z,0.40
2018-02-07T19:44:56.559Z,0.30
2018-02-07T19:47:24.103Z,0.30
2018-02-07T19:49:53.034Z,0.30
2018-02-07T19:52:25.288Z,0.30
2018-02-07T19:54:53.260Z,0.30
2018-02-07T19:57:20.825Z,0.30
2018-02-07T19:59:48.415Z,0.30
2018-02-07T20:02:16.028Z,0.20
2018-02-07T20:04:44.034Z,0.30
2018-02-07T20:07:11.605Z,0.30
2018-02-07T20:09:39.257Z,0.30
2018-02-07T20:12:09.642Z,0.20
2018-02-07T20:14:37.573Z,0.30
2018-02-07T20:17:05.949Z,0.20
2018-02-07T20:19:33.518Z,0.20
2018-02-07T20:22:01.297Z,0.20
2018-02-07T20:24:28.858Z,0.20
2018-02-07T20:26:56.400Z,0.20
2018-02-07T20:29:25.018Z,0.10
2018-02-07T20:31:52.593Z,0.10
2018-02-07T20:34:20.213Z,0.10
2018-02-07T20:36:47.798Z,0.10
2018-02-07T20:39:15.762Z,0.10
2018-02-07T20:41:43.713Z,0.00
2018-02-07T20:44:11.273Z,0.00
2018-02-07T20:46:38.878Z,0.00
2018-02-07T20:49:06.508Z,-0.10
2018-02-07T20:51:37.953Z,-0.10
2018-02-07T20:54:07.068Z,-0.10
2018-02-07T20:56:35.505Z,-0.10
2018-02-07T20:59:04.078Z,-0.10
2018-02-07T21:01:31.684Z,-0.10
2018-02-07T21:04:00.040Z,-0.10
2018-02-07T21:06:27.615Z,-0.10
2018-02-07T21:08:55.604Z,-0.10
2018-02-07T21:11:23.606Z,-0.10
2018-02-07T21:13:51.180Z,-0.10
2018-02-07T21:16:18.797Z,-0.10
2018-02-07T21:18:47.685Z,-0.10
2018-02-07T21:21:15.298Z,-0.10
2018-02-07T21:23:42.922Z,-0.10
2018-02-07T21:26:10.889Z,-0.10
2018-02-07T21:28:38.462Z,-0.20
2018-02-07T21:31:06.243Z,-0.20
2018-02-07T21:33:33.858Z,-0.20
2018-02-07T21:36:01.434Z,-0.20
2018-02-07T21:38:29.075Z,-0.20
2018-02-07T21:40:57.033Z,-0.20
2018-02-07T21:43:24.981Z,-0.20
2018-02-07T21:45:52.603Z,-0.20
2018-02-07T21:48:20.176Z,-0.20
2018-02-07T21:50:47.826Z,-0.30
2018-02-07T21:53:15.369Z,-0.30
2018-02-07T21:55:42.918Z,-0.20
2018-02-07T21:58:10.471Z,-0.30
2018-02-07T22:00:38.051Z,-0.30
2018-02-07T22:03:05.590Z,-0.40
2018-02-07T22:05:33.171Z,-0.40
2018-02-07T22:08:01.325Z,-0.40
2018-02-07T22:10:28.905Z,-0.40
2018-02-07T22:12:56.465Z,-0.40
2018-02-07T22:15:24.020Z,-0.40
2018-02-07T22:17:51.591Z,-0.40
2018-02-07T22:20:19.118Z,-0.40
2018-02-07T22:22:46.682Z,-0.40
2018-02-07T22:25:14.937Z,-0.40
2018-02-07T22:27:42.486Z,-0.40
2018-02-07T22:30:10.024Z,-0.50
2018-02-07T22:32:37.625Z,-0.50
2018-02-07T22:35:05.177Z,-0.50
2018-02-07T22:37:33.178Z,-0.40
2018-02-07T22:40:00.738Z,-0.40
2018-02-07T22:42:28.285Z,-0.40
2018-02-07T22:44:56.099Z,-0.40
2018-02-07T22:47:23.685Z,-0.30
2018-02-07T22:49:51.238Z,-0.40
2018-02-07T22:52:18.802Z,-0.30
2018-02-07T22:54:46.778Z,-0.20
2018-02-07T22:57:14.949Z,-0.20
2018-02-07T22:59:42.908Z,-0.20
2018-02-07T23:02:10.840Z,-0.20
2018-02-07T23:04:38.394Z,-0.10
2018-02-07T23:07:05.985Z,-0.10
2018-02-07T23:09:33.578Z,-0.10
2018-02-07T23:12:01.518Z,-0.20
2018-02-07T23:14:29.066Z,-0.20
2018-02-07T23:16:56.617Z,-0.20
2018-02-07T23:19:24.197Z,-0.20
2018-02-07T23:21:51.772Z,-0.20
2018-02-07T23:24:19.762Z,-0.20
2018-02-07T23:26:47.309Z,-0.20
2018-02-07T23:29:15.277Z,-0.20
2018-02-07T23:31:43.241Z,-0.20
2018-02-07T23:34:10.845Z,-0.20
2018-02-07T23:36:38.853Z,-0.20
2018-02-07T23:39:06.396Z,-0.20
2018-02-07T23:41:34.735Z,-0.20
2018-02-07T23:44:02.310Z,-0.20
2018-02-07T23:46:29.884Z,-0.20
2018-02-07T23:48:57.439Z,-0.20
2018-02-07T23:51:25.028Z,-0.30
2018-02-07T23:53:53.601Z,-0.20
2018-02-07T23:56:21.163Z,-0.20
2018-02-07T23:58:48.721Z,-0.20
